Time;durP1;ratioP1;P1;durP2;ratioP2;P2;SDS_P1;SDS_P2;PMS_P1;PMS_P2;Temp;Humidity;BMP_temperature;BMP_pressure;BME280_temperature;BME280_humidity;BME280_pressure;Samples;Min_cycle;Max_cycle;Signal;HPM_P1;HPM_P2
2023/04/08 00:01:14;;;;;;;8.50;6.45;;;5.20;99.90;;;;;;4950318;28;20089;-45
2023/04/08 00:03:40;;;;;;;7.90;6.10;;;5.20;99.90;;;;;;4951866;28;20046;-49
2023/04/08 00:06:07;;;;;;;10.70;6.88;;;5.20;99.90;;;;;;4952744;28;20050;-50
2023/04/08 00:08:32;;;;;;;11.10;6.53;;;5.10;99.90;;;;;;4966852;28;20051;-51
2023/04/08 00:10:58;;;;;;;9.30;6.72;;;5.20;99.90;;;;;;4953256;28;20054;-44
2023/04/08 00:13:25;;;;;;;9.63;6.93;;;5.20;99.90;;;;;;4968272;28;20046;-51
2023/04/08 00:15:52;;;;;;;9.20;6.60;;;5.10;99.90;;;;;;4970368;28;20509;-53
2023/04/08 00:18:18;;;;;;;11.90;7.28;;;5.10;99.90;;;;;;4967619;28;20122;-42
2023/04/08 00:20:43;;;;;;;8.77;7.07;;;5.10;99.90;;;;;;4951951;28;20213;-53
2023/04/08 00:23:09;;;;;;;11.73;7.57;;;5.10;99.90;;;;;;4969587;28;20035;-43
2023/04/08 00:25:35;;;;;;;10.20;7.38;;;5.00;99.90;;;;;;4968270;28;20133;-44
2023/04/08 00:28:00;;;;;;;12.43;7.72;;;5.10;99.90;;;;;;4969803;28;20071;-48
2023/04/08 00:30:27;;;;;;;12.70;7.90;;;5.00;99.90;;;;;;4968265;28;20833;-42
2023/04/08 00:32:53;;;;;;;13.30;7.32;;;5.00;99.90;;;;;;4968919;28;20039;-45
2023/04/08 00:35:21;;;;;;;13.52;8.25;;;4.90;99.90;;;;;;4954402;28;20118;-58
2023/04/08 00:37:48;;;;;;;10.10;7.55;;;5.00;99.90;;;;;;4969896;28;20147;-46
2023/04/08 00:40:14;;;;;;;11.27;7.85;;;4.90;99.90;;;;;;4966748;28;20051;-46
2023/04/08 00:42:40;;;;;;;10.00;8.13;;;4.90;99.90;;;;;;4968202;28;20042;-52
2023/04/08 00:45:07;;;;;;;12.75;8.23;;;4.90;99.90;;;;;;4969732;28;20042;-55
2023/04/08 00:47:34;;;;;;;10.43;8.63;;;4.90;99.90;;;;;;4949851;28;20049;-46
2023/04/08 00:50:00;;;;;;;12.48;8.52;;;4.80;99.90;;;;;;4969498;28;20085;-51
2023/04/08 00:52:26;;;;;;;14.25;9.27;;;4.80;99.90;;;;;;4967683;28;20057;-54
2023/04/08 00:54:52;;;;;;;11.75;8.00;;;4.80;99.90;;;;;;4969810;28;20042;-44
2023/04/08 00:57:18;;;;;;;12.05;8.65;;;4.80;99.90;;;;;;4968274;28;20050;-44
2023/04/08 00:59:44;;;;;;;11.73;8.98;;;4.80;99.90;;;;;;4968318;28;20401;-43
2023/04/08 01:02:25;;;;;;;11.57;8.32;;;4.80;99.90;;;;;;4969168;28;20499;-43
2023/04/08 01:05:13;;;;;;;16.33;8.60;;;4.80;99.90;;;;;;4968036;28;20047;-51
2023/04/08 01:07:49;;;;;;;10.52;8.13;;;4.80;99.90;;;;;;4969000;28;20099;-48
2023/04/08 01:10:16;;;;;;;11.77;8.43;;;4.80;99.90;;;;;;4967849;28;20500;-56
2023/04/08 01:12:55;;;;;;;15.02;9.80;;;4.80;99.90;;;;;;4968725;28;20101;-51
2023/04/08 01:15:21;;;;;;;12.88;9.10;;;4.80;99.90;;;;;;4969620;28;20146;-43
2023/04/08 01:17:51;;;;;;;10.70;8.63;;;4.90;99.90;;;;;;4967458;28;20969;-45
2023/04/08 01:20:18;;;;;;;;;;;5.00;99.90;;;;;;4969448;28;20054;-45
2023/04/08 01:23:07;;;;;;;14.50;9.73;;;5.00;99.90;;;;;;4967406;28;20030;-42
2023/04/08 01:25:35;;;;;;;11.30;8.98;;;5.00;99.90;;;;;;4951409;28;20092;-45
2023/04/08 01:28:05;;;;;;;16.80;10.20;;;5.10;99.90;;;;;;4968294;28;20051;-42
2023/04/08 01:30:32;;;;;;;12.80;9.70;;;5.10;99.90;;;;;;4967458;28;20058;-45
2023/04/08 01:32:59;;;;;;;15.27;10.48;;;5.10;99.90;;;;;;4969374;28;20286;-46
2023/04/08 01:35:25;;;;;;;13.98;10.30;;;5.10;99.90;;;;;;4967507;28;20042;-45
2023/04/08 01:37:53;;;;;;;15.85;10.60;;;5.10;99.90;;;;;;4968605;28;20441;-50
2023/04/08 01:40:19;;;;;;;15.32;11.10;;;5.10;99.90;;;;;;4967268;28;20074;-51
2023/04/08 01:42:47;;;;;;;15.90;11.05;;;5.10;99.90;;;;;;4968904;28;20042;-51
2023/04/08 01:45:15;;;;;;;14.30;10.38;;;5.10;99.90;;;;;;4968570;28;20106;-44
2023/04/08 01:47:42;;;;;;;16.77;10.57;;;5.10;99.90;;;;;;4967542;28;20071;-48
2023/04/08 01:50:09;;;;;;;13.90;10.43;;;5.10;99.90;;;;;;4968429;28;20050;-45
2023/04/08 01:52:37;;;;;;;14.85;11.40;;;5.10;99.90;;;;;;4967444;28;20047;-53
2023/04/08 01:55:04;;;;;;;15.57;11.23;;;5.10;99.90;;;;;;4955320;28;20057;-47
2023/04/08 01:57:34;;;;;;;15.02;10.95;;;5.10;99.90;;;;;;4971414;28;20173;-46
2023/04/08 02:00:03;;;;;;;16.85;10.30;;;5.00;99.90;;;;;;4972334;28;20532;-47
2023/04/08 02:02:30;;;;;;;16.07;11.30;;;5.00;99.90;;;;;;4972253;28;20405;-45
2023/04/08 02:04:57;;;;;;;18.17;11.18;;;4.90;99.90;;;;;;4969921;28;20074;-51
2023/04/08 02:07:23;;;;;;;14.15;10.63;;;4.90;99.90;;;;;;4972679;28;20078;-51
2023/04/08 02:09:49;;;;;;;15.60;11.52;;;4.90;99.90;;;;;;4970098;28;20055;-52
2023/04/08 02:12:16;;;;;;;22.88;11.73;;;4.90;99.90;;;;;;4972641;28;20488;-48
2023/04/08 02:14:41;;;;;;;16.42;12.88;;;4.80;99.90;;;;;;4969382;28;20047;-47
2023/04/08 02:17:20;;;;;;;17.15;12.27;;;4.80;99.90;;;;;;4955122;28;20081;-45
2023/04/08 02:19:58;;;;;;;17.13;12.55;;;4.80;99.90;;;;;;4970497;28;20088;-47
2023/04/08 02:23:07;;;;;;;19.45;11.82;;;4.90;99.90;;;;;;4971291;28;20133;-58
2023/04/08 02:25:37;;;;;;;17.23;12.65;;;4.90;99.90;;;;;;4972392;28;20509;-45
2023/04/08 02:28:05;;;;;;;17.50;13.48;;;4.90;99.90;;;;;;4970698;28;20065;-47
2023/04/08 02:30:33;;;;;;;16.98;12.93;;;4.90;99.90;;;;;;4971648;28;20555;-52
2023/04/08 02:33:02;;;;;;;18.75;12.77;;;4.90;99.90;;;;;;4971560;28;20101;-46
2023/04/08 02:35:28;;;;;;;16.50;12.90;;;4.90;99.90;;;;;;4969666;28;20133;-50
2023/04/08 02:37:54;;;;;;;20.90;13.73;;;4.90;99.90;;;;;;4954014;28;20130;-52
2023/04/08 02:40:25;;;;;;;20.23;14.07;;;4.90;99.90;;;;;;4969896;28;20074;-48
2023/04/08 02:42:50;;;;;;;18.65;13.68;;;4.90;99.90;;;;;;4971888;28;20047;-45
2023/04/08 02:45:16;;;;;;;20.35;13.10;;;4.80;99.90;;;;;;4970541;28;20050;-46
2023/04/08 02:47:42;;;;;;;16.77;12.43;;;4.80;99.90;;;;;;4971342;28;20418;-47
2023/04/08 02:50:09;;;;;;;16.80;13.07;;;4.80;99.90;;;;;;4970938;28;20046;-47
2023/04/08 02:52:35;;;;;;;15.40;12.52;;;4.70;99.90;;;;;;4970402;28;20051;-54
2023/04/08 02:55:01;;;;;;;21.05;13.98;;;4.80;99.90;;;;;;4971232;28;20061;-56
2023/04/08 02:57:26;;;;;;;19.17;12.82;;;4.80;99.90;;;;;;4970231;28;20054;-52
2023/04/08 02:59:52;;;;;;;27.65;14.48;;;4.80;99.90;;;;;;4971415;28;20148;-45
2023/04/08 03:02:18;;;;;;;21.80;14.82;;;4.80;99.90;;;;;;4969807;28;20041;-49
2023/04/08 03:04:43;;;;;;;20.98;14.15;;;4.80;99.90;;;;;;4969914;28;20379;-42
2023/04/08 03:07:09;;;;;;;20.27;14.30;;;4.80;99.90;;;;;;4952006;28;20134;-41
2023/04/08 03:09:35;;;;;;;24.00;14.93;;;4.80;99.90;;;;;;4970897;28;20057;-49
2023/04/08 03:12:01;;;;;;;24.88;14.55;;;4.80;99.90;;;;;;4971053;28;20831;-48
2023/04/08 03:14:27;;;;;;;20.73;15.23;;;4.80;99.90;;;;;;4952548;28;20042;-52
2023/04/08 03:16:52;;;;;;;23.90;14.75;;;4.80;99.90;;;;;;4970300;28;20410;-48
2023/04/08 03:19:18;;;;;;;19.45;15.23;;;4.80;99.90;;;;;;4969422;28;20054;-44
2023/04/08 03:21:44;;;;;;;21.13;15.38;;;4.80;99.90;;;;;;4969373;28;20839;-43
2023/04/08 03:24:10;;;;;;;21.05;14.35;;;4.80;99.90;;;;;;4969479;28;20097;-51
2023/04/08 03:26:35;;;;;;;21.95;15.77;;;4.80;99.90;;;;;;4971039;28;20046;-44
2023/04/08 03:29:01;;;;;;;22.10;15.73;;;4.80;99.90;;;;;;4969888;28;20058;-45
2023/04/08 03:31:27;;;;;;;23.33;15.95;;;4.80;99.90;;;;;;4970267;28;20393;-53
2023/04/08 03:33:52;;;;;;;21.85;15.60;;;4.80;99.90;;;;;;4970640;28;20054;-42
2023/04/08 03:36:18;;;;;;;24.40;15.85;;;4.80;99.90;;;;;;4951788;28;20043;-48
2023/04/08 03:38:44;;;;;;;23.35;16.05;;;4.80;99.90;;;;;;4970777;28;20039;-57
2023/04/08 03:41:10;;;;;;;24.98;17.02;;;4.80;99.90;;;;;;4951932;28;20097;-47
2023/04/08 03:43:36;;;;;;;23.88;15.77;;;4.90;99.90;;;;;;4970884;28;20046;-50
2023/04/08 03:46:01;;;;;;;25.17;16.83;;;4.90;99.90;;;;;;4969239;28;20108;-45
2023/04/08 03:48:27;;;;;;;27.52;16.52;;;4.90;99.90;;;;;;4936863;28;20062;-44
2023/04/08 03:50:53;;;;;;;22.88;15.93;;;4.90;99.90;;;;;;4952270;28;20109;-41
2023/04/08 03:53:19;;;;;;;22.98;15.88;;;4.80;99.90;;;;;;4952342;28;20055;-53
2023/04/08 03:55:44;;;;;;;26.00;17.48;;;4.90;99.90;;;;;;4970766;28;20043;-46
2023/04/08 03:58:10;;;;;;;26.65;16.92;;;4.90;99.90;;;;;;4968468;28;20114;-53
2023/04/08 04:00:36;;;;;;;24.92;16.48;;;5.00;99.90;;;;;;4970770;28;20050;-52
2023/04/08 04:03:02;;;;;;;22.40;16.95;;;5.00;99.90;;;;;;4968602;28;20477;-46
2023/04/08 04:05:28;;;;;;;27.20;17.48;;;5.00;99.90;;;;;;4970189;28;20039;-52
2023/04/08 04:07:53;;;;;;;25.58;17.17;;;5.00;99.90;;;;;;4968973;28;20054;-42
2023/04/08 04:10:19;;;;;;;27.98;18.88;;;5.10;99.90;;;;;;4969879;28;20485;-49
2023/04/08 04:12:46;;;;;;;23.63;17.23;;;5.10;99.90;;;;;;4952635;28;20098;-47
2023/04/08 04:15:17;;;;;;;22.02;16.63;;;5.10;99.90;;;;;;4950841;28;20417;-44
2023/04/08 04:17:43;;;;;;;26.33;18.17;;;5.20;99.90;;;;;;4968962;28;20050;-44
2023/04/08 04:20:09;;;;;;;22.77;16.02;;;5.20;99.90;;;;;;4968168;28;20067;-42
2023/04/08 04:22:35;;;;;;;23.08;15.55;;;5.30;99.90;;;;;;4952103;28;20050;-53
2023/04/08 04:25:01;;;;;;;30.10;17.35;;;5.20;99.90;;;;;;4968406;28;20062;-45
2023/04/08 04:27:26;;;;;;;27.52;16.23;;;5.30;99.90;;;;;;4969828;28;20094;-56
2023/04/08 04:29:52;;;;;;;20.10;15.02;;;5.20;99.90;;;;;;4967892;28;20129;-42
2023/04/08 04:32:18;;;;;;;22.42;16.25;;;5.30;99.90;;;;;;4968541;28;20049;-44
2023/04/08 04:34:44;;;;;;;24.42;16.13;;;5.30;99.90;;;;;;4969687;28;20121;-51
2023/04/08 04:37:10;;;;;;;20.25;15.32;;;5.30;99.90;;;;;;4950657;28;20166;-50
2023/04/08 04:39:35;;;;;;;19.92;14.88;;;5.30;99.90;;;;;;4969276;28;20046;-51
2023/04/08 04:42:02;;;;;;;25.67;16.17;;;5.30;99.90;;;;;;4950245;28;20035;-51
2023/04/08 04:44:28;;;;;;;21.83;16.65;;;5.30;99.90;;;;;;4969752;28;20137;-50
2023/04/08 04:46:54;;;;;;;22.63;14.85;;;5.30;99.90;;;;;;4950482;28;20065;-58
2023/04/08 04:49:19;;;;;;;20.60;14.50;;;5.30;99.90;;;;;;4968989;28;20105;-49
2023/04/08 04:51:45;;;;;;;20.15;14.88;;;5.30;99.90;;;;;;4969527;28;20102;-44
2023/04/08 04:54:11;;;;;;;20.88;14.23;;;5.30;99.90;;;;;;4968051;28;20180;-53
2023/04/08 04:56:37;;;;;;;16.45;14.13;;;5.20;99.90;;;;;;4951679;28;20098;-47
2023/04/08 04:59:04;;;;;;;23.20;14.45;;;5.30;99.90;;;;;;4967563;28;20073;-53
2023/04/08 05:01:30;;;;;;;18.08;13.55;;;5.40;99.90;;;;;;4970015;28;20137;-53
2023/04/08 05:03:56;;;;;;;16.40;13.80;;;5.40;99.90;;;;;;4953688;28;20521;-60
2023/04/08 05:06:23;;;;;;;16.30;13.35;;;5.40;99.90;;;;;;4951863;28;20130;-50
2023/04/08 05:08:50;;;;;;;20.75;13.55;;;5.30;99.90;;;;;;4968967;28;20061;-45
2023/04/08 05:11:17;;;;;;;19.25;14.00;;;5.40;99.90;;;;;;4967522;28;20054;-51
2023/04/08 05:13:43;;;;;;;19.83;13.52;;;5.40;99.90;;;;;;4969462;28;20129;-46
2023/04/08 05:16:09;;;;;;;19.48;14.02;;;5.40;99.90;;;;;;4967153;28;20047;-51
2023/04/08 05:18:35;;;;;;;19.90;14.70;;;5.40;99.90;;;;;;4951862;28;20689;-48
2023/04/08 05:21:02;;;;;;;17.67;11.60;;;5.40;99.90;;;;;;4949227;28;20055;-50
2023/04/08 05:23:27;;;;;;;18.75;13.10;;;5.40;99.90;;;;;;4969709;28;20035;-44
2023/04/08 05:25:53;;;;;;;15.68;12.00;;;5.40;99.90;;;;;;4966980;28;20039;-42
2023/04/08 05:28:19;;;;;;;20.55;11.93;;;5.40;99.90;;;;;;4950366;28;20178;-45
2023/04/08 05:30:52;;;;;;;15.82;12.40;;;5.50;99.90;;;;;;4960697;28;20079;-49
2023/04/08 05:33:18;;;;;;;15.02;11.23;;;5.50;99.90;;;;;;4949386;28;20054;-52
2023/04/08 05:35:44;;;;;;;15.18;11.15;;;5.50;99.90;;;;;;4951884;28;20053;-47
2023/04/08 05:38:10;;;;;;;13.82;11.25;;;5.50;99.90;;;;;;4949449;28;20455;-52
2023/04/08 05:40:36;;;;;;;13.18;10.80;;;5.60;99.90;;;;;;4953140;28;20130;-46
2023/04/08 05:43:02;;;;;;;17.70;11.15;;;5.60;99.90;;;;;;4949770;28;20039;-41
2023/04/08 05:45:28;;;;;;;14.70;10.82;;;5.60;99.90;;;;;;4966619;28;20062;-56
2023/04/08 05:47:54;;;;;;;14.55;11.88;;;5.60;99.90;;;;;;4967965;28;20074;-44
2023/04/08 05:50:20;;;;;;;20.40;11.65;;;5.60;99.90;;;;;;4967276;28;20053;-44
2023/04/08 05:52:45;;;;;;;12.75;10.40;;;5.70;99.90;;;;;;4951677;28;20047;-51
2023/04/08 05:55:13;;;;;;;15.05;10.80;;;5.70;99.90;;;;;;4947881;28;20100;-45
2023/04/08 05:57:39;;;;;;;18.90;12.43;;;5.70;99.90;;;;;;4968634;28;20081;-48
2023/04/08 06:00:07;;;;;;;12.60;10.05;;;5.70;99.90;;;;;;4966722;28;20042;-53
2023/04/08 06:02:33;;;;;;;16.45;10.13;;;5.70;99.90;;;;;;4968338;28;20491;-49
2023/04/08 06:04:59;;;;;;;13.02;9.65;;;5.70;99.90;;;;;;4968328;28;20097;-42
2023/04/08 06:07:24;;;;;;;13.07;10.40;;;5.80;99.90;;;;;;4965978;28;20501;-50
2023/04/08 06:09:50;;;;;;;15.60;10.95;;;5.80;99.90;;;;;;4968919;28;20054;-45
2023/04/08 06:12:16;;;;;;;15.77;10.48;;;5.80;99.90;;;;;;4966453;28;20536;-56
2023/04/08 06:14:42;;;;;;;11.77;9.52;;;5.80;99.90;;;;;;4967339;28;20513;-48
2023/04/08 06:17:07;;;;;;;15.13;10.52;;;5.80;99.90;;;;;;4966714;28;20043;-44
2023/04/08 06:19:34;;;;;;;12.15;10.00;;;5.80;99.90;;;;;;4967179;28;20862;-52
2023/04/08 06:21:59;;;;;;;13.43;10.38;;;5.80;99.90;;;;;;4967723;28;20054;-51
2023/04/08 06:24:26;;;;;;;16.73;11.57;;;5.80;99.90;;;;;;4967465;28;20047;-52
2023/04/08 06:26:53;;;;;;;13.98;10.90;;;5.80;99.90;;;;;;4967321;28;20086;-43
2023/04/08 06:29:20;;;;;;;17.30;11.43;;;5.90;99.90;;;;;;4966612;28;20058;-52
2023/04/08 06:31:45;;;;;;;13.75;11.32;;;5.90;99.90;;;;;;4968807;28;20054;-47
2023/04/08 06:34:11;;;;;;;14.73;11.38;;;6.00;99.90;;;;;;4966520;28;20082;-47
2023/04/08 06:36:37;;;;;;;15.98;12.05;;;6.00;99.90;;;;;;4968848;28;20102;-54
2023/04/08 06:39:03;;;;;;;16.38;12.48;;;6.00;99.90;;;;;;4967844;28;20515;-42
2023/04/08 06:41:29;;;;;;;13.40;11.63;;;6.00;99.90;;;;;;4971674;28;20587;-44
2023/04/08 06:43:55;;;;;;;17.75;12.07;;;6.10;99.90;;;;;;4970044;28;20078;-49
2023/04/08 06:46:21;;;;;;;17.42;12.38;;;6.00;99.90;;;;;;4970737;28;20058;-52
2023/04/08 06:48:46;;;;;;;17.45;12.15;;;6.00;99.90;;;;;;4971617;28;20069;-49
2023/04/08 06:51:12;;;;;;;15.77;11.50;;;5.90;99.90;;;;;;4969740;28;20055;-52
2023/04/08 06:53:38;;;;;;;14.80;11.27;;;5.90;99.90;;;;;;4971704;28;20867;-46
2023/04/08 06:56:04;;;;;;;17.35;10.98;;;5.90;99.90;;;;;;4970332;28;20097;-49
2023/04/08 06:58:30;;;;;;;16.45;11.38;;;5.90;99.90;;;;;;4969917;28;20058;-47
2023/04/08 07:00:56;;;;;;;16.02;11.73;;;5.90;99.90;;;;;;4951524;28;20496;-42
2023/04/08 07:03:22;;;;;;;14.60;10.43;;;6.00;99.90;;;;;;4969568;28;20050;-45
2023/04/08 07:05:48;;;;;;;16.40;9.82;;;6.00;99.90;;;;;;4953060;28;20061;-45
2023/04/08 07:08:14;;;;;;;20.20;11.80;;;6.00;99.90;;;;;;4969018;28;20046;-44
2023/04/08 07:10:40;;;;;;;16.20;10.80;;;6.10;99.90;;;;;;4970400;28;20046;-51
2023/04/08 07:13:06;;;;;;;14.43;11.55;;;6.00;99.90;;;;;;4969545;28;20122;-51
2023/04/08 07:15:32;;;;;;;16.45;11.20;;;6.00;99.90;;;;;;4970270;28;20130;-44
2023/04/08 07:17:58;;;;;;;15.13;10.13;;;6.00;99.90;;;;;;4943341;29;20046;-55
2023/04/08 07:20:25;;;;;;;12.88;9.45;;;6.10;99.90;;;;;;4966254;28;20059;-45
2023/04/08 07:22:51;;;;;;;12.82;8.63;;;6.10;99.90;;;;;;4969231;28;20057;-43
2023/04/08 07:25:17;;;;;;;10.07;7.47;;;6.20;99.90;;;;;;4952338;28;20089;-54
2023/04/08 07:27:42;;;;;;;11.98;8.52;;;6.30;99.90;;;;;;4953211;28;20054;-50
2023/04/08 07:30:08;;;;;;;9.38;7.53;;;6.40;99.90;;;;;;4952336;28;20046;-46
2023/04/08 07:32:35;;;;;;;9.93;7.38;;;6.50;99.90;;;;;;4970694;28;20172;-50
2023/04/08 07:35:01;;;;;;;11.65;7.88;;;6.60;99.90;;;;;;4942733;28;20051;-49
2023/04/08 07:37:27;;;;;;;11.85;8.15;;;6.60;99.90;;;;;;4970540;28;20154;-47
2023/04/08 07:39:53;;;;;;;8.98;7.60;;;6.70;99.90;;;;;;4969298;28;20411;-49
2023/04/08 07:42:18;;;;;;;9.77;6.97;;;6.70;99.90;;;;;;4970363;28;20047;-50
2023/04/08 07:44:45;;;;;;;9.95;7.20;;;6.70;99.90;;;;;;4970532;28;20093;-45
2023/04/08 07:47:11;;;;;;;11.82;7.85;;;6.80;99.90;;;;;;4951822;28;20094;-56
2023/04/08 07:49:37;;;;;;;9.57;7.50;;;6.90;99.90;;;;;;4969225;28;20724;-50
2023/04/08 07:52:04;;;;;;;12.20;8.10;;;6.90;99.90;;;;;;4968925;28;20117;-47
2023/04/08 07:54:33;;;;;;;13.13;7.55;;;7.00;99.90;;;;;;4952116;28;20434;-50
2023/04/08 07:57:00;;;;;;;10.02;7.80;;;7.10;99.90;;;;;;4968959;28;20437;-50
2023/04/08 07:59:26;;;;;;;12.10;8.02;;;7.20;99.90;;;;;;4969959;28;20046;-53
2023/04/08 08:01:52;;;;;;;11.07;7.03;;;7.30;99.90;;;;;;4952543;28;20055;-44
2023/04/08 08:04:18;;;;;;;14.82;8.73;;;7.30;99.90;;;;;;4969545;28;20401;-42
2023/04/08 08:06:43;;;;;;;13.45;8.95;;;7.40;99.90;;;;;;4970102;28;20093;-48
2023/04/08 08:09:09;;;;;;;14.05;9.07;;;7.60;99.90;;;;;;4951122;28;20191;-54
2023/04/08 08:11:35;;;;;;;10.95;7.60;;;7.70;99.90;;;;;;4952508;28;20065;-44
2023/04/08 08:14:00;;;;;;;12.35;8.15;;;7.80;99.90;;;;;;4968782;28;20094;-47
2023/04/08 08:16:31;;;;;;;13.32;9.48;;;7.90;99.90;;;;;;4968965;28;20046;-50
2023/04/08 08:19:00;;;;;;;11.73;8.45;;;8.10;99.90;;;;;;4952068;28;20085;-41
2023/04/08 08:21:26;;;;;;;14.07;8.75;;;8.20;99.20;;;;;;4951642;28;20061;-48
2023/04/08 08:23:53;;;;;;;13.13;9.13;;;8.20;97.30;;;;;;4970296;28;20065;-47
2023/04/08 08:26:20;;;;;;;14.07;9.55;;;8.20;96.90;;;;;;4968569;28;20097;-48
2023/04/08 08:28:45;;;;;;;14.55;9.55;;;8.20;95.80;;;;;;4951514;28;20267;-46
2023/04/08 08:31:11;;;;;;;14.35;10.30;;;8.30;96.10;;;;;;4968091;28;20035;-50
2023/04/08 08:33:37;;;;;;;13.30;10.13;;;8.30;96.40;;;;;;4969269;28;20485;-48
2023/04/08 08:36:06;;;;;;;16.60;10.30;;;8.30;96.30;;;;;;4968545;28;20126;-41
2023/04/08 08:38:32;;;;;;;15.48;10.35;;;8.30;95.90;;;;;;4954599;28;20074;-46
2023/04/08 08:40:59;;;;;;;15.98;10.13;;;8.40;96.70;;;;;;4968890;28;20082;-50
2023/04/08 08:43:25;;;;;;;20.80;11.65;;;8.40;95.00;;;;;;4967129;28;20035;-51
2023/04/08 08:45:51;;;;;;;20.08;11.15;;;8.40;94.10;;;;;;4969541;28;20405;-49
2023/04/08 08:48:17;;;;;;;18.88;11.38;;;8.30;94.40;;;;;;4967497;28;20066;-51
2023/04/08 08:50:43;;;;;;;24.50;12.48;;;8.30;94.80;;;;;;4968739;28;20413;-45
2023/04/08 08:53:09;;;;;;;17.38;11.45;;;8.30;95.80;;;;;;4967842;28;20042;-48
2023/04/08 08:55:34;;;;;;;18.70;12.02;;;8.40;97.10;;;;;;4967606;28;20050;-41
2023/04/08 08:58:01;;;;;;;18.08;12.73;;;8.50;97.00;;;;;;4951052;28;20054;-52
2023/04/08 09:00:36;;;;;;;21.20;13.70;;;8.40;94.70;;;;;;4968058;28;20533;-60
2023/04/08 09:03:24;;;;;;;22.80;13.50;;;8.50;94.90;;;;;;4951770;28;20049;-52
2023/04/08 09:05:53;;;;;;;22.83;14.20;;;8.50;94.70;;;;;;4937597;28;20528;-42
2023/04/08 09:08:29;;;;;;;21.02;13.45;;;8.60;95.40;;;;;;4968537;28;20043;-57
2023/04/08 09:11:09;;;;;;;26.95;14.85;;;8.70;94.80;;;;;;4948680;28;20054;-41
2023/04/08 09:13:38;;;;;;;30.13;17.13;;;8.80;95.70;;;;;;4966455;28;20071;-47
2023/04/08 09:16:08;;;;;;;27.38;16.80;;;8.90;94.00;;;;;;4968503;28;20050;-44
2023/04/08 09:18:34;;;;;;;27.85;17.20;;;9.00;95.20;;;;;;4949411;28;20455;-46
2023/04/08 09:21:01;;;;;;;32.40;19.17;;;8.90;93.20;;;;;;4968243;28;20168;-54
2023/04/08 09:23:47;;;;;;;34.42;18.25;;;8.80;94.60;;;;;;4967877;28;20085;-45
2023/04/08 09:26:23;;;;;;;29.05;18.05;;;8.70;96.10;;;;;;4968785;28;20042;-48
2023/04/08 09:29:03;;;;;;;26.38;16.05;;;8.60;97.30;;;;;;4951455;28;20047;-42
2023/04/08 09:31:37;;;;;;;30.25;17.65;;;8.60;96.40;;;;;;4966782;28;20059;-46
2023/04/08 09:34:14;;;;;;;28.48;17.52;;;8.50;97.40;;;;;;4962363;28;20068;-43
2023/04/08 09:36:39;;;;;;;24.88;17.40;;;8.50;99.90;;;;;;4948937;28;20133;-49
2023/04/08 09:39:06;;;;;;;23.90;16.45;;;8.60;99.40;;;;;;4968204;28;20454;-47
2023/04/08 09:41:36;;;;;;;28.35;16.95;;;8.70;99.60;;;;;;4967292;28;20051;-60
2023/04/08 09:44:04;;;;;;;28.65;17.38;;;8.70;97.30;;;;;;4948098;28;20078;-48
2023/04/08 09:46:53;;;;;;;31.88;16.83;;;8.60;98.10;;;;;;4968061;28;20476;-46
2023/04/08 09:49:26;;;;;;;25.17;16.52;;;8.60;99.40;;;;;;4966248;28;20092;-56
2023/04/08 09:52:10;;;;;;;22.67;14.55;;;8.70;99.90;;;;;;4950552;28;20151;-44
2023/04/08 09:55:09;;;;;;;22.88;13.68;;;8.80;99.10;;;;;;4967958;28;20370;-48
2023/04/08 09:57:44;;;;;;;29.33;15.52;;;8.90;99.90;;;;;;4925831;29;20047;-59
2023/04/08 10:00:12;;;;;;;26.10;14.63;;;9.00;96.90;;;;;;4949977;28;20046;-52
2023/04/08 10:02:55;;;;;;;24.35;14.27;;;9.00;96.30;;;;;;4949008;28;20051;-42
2023/04/08 10:05:23;;;;;;;27.90;14.35;;;9.00;96.70;;;;;;4966299;28;20405;-50
2023/04/08 10:07:49;;;;;;;22.95;13.65;;;9.10;98.20;;;;;;4967187;28;20533;-44
2023/04/08 10:10:15;;;;;;;23.33;13.82;;;9.10;96.30;;;;;;4949692;28;20544;-52
2023/04/08 10:12:42;;;;;;;27.85;15.13;;;9.10;95.10;;;;;;4966515;28;20039;-54
2023/04/08 10:15:23;;;;;;;24.70;14.30;;;9.10;96.40;;;;;;4969366;28;20047;-48
2023/04/08 10:17:50;;;;;;;26.27;14.45;;;9.10;97.90;;;;;;4971095;28;20077;-54
2023/04/08 10:20:34;;;;;;;23.55;14.93;;;9.10;97.20;;;;;;4970988;28;20070;-42
2023/04/08 10:23:06;;;;;;;24.50;14.45;;;9.00;96.90;;;;;;4970637;28;20039;-46
2023/04/08 10:25:37;;;;;;;27.17;14.80;;;9.10;97.80;;;;;;4971242;28;20544;-51
2023/04/08 10:28:12;;;;;;;23.70;14.38;;;9.10;98.20;;;;;;4970175;28;20433;-42
2023/04/08 10:30:45;;;;;;;27.23;14.50;;;9.10;99.60;;;;;;4971598;28;20390;-46
2023/04/08 10:33:17;;;;;;;34.67;15.60;;;9.20;97.40;;;;;;4968026;28;20409;-51
2023/04/08 10:35:58;;;;;;;26.38;15.35;;;9.10;96.60;;;;;;4970472;28;20046;-58
2023/04/08 10:38:24;;;;;;;26.13;16.13;;;8.90;95.90;;;;;;4970907;28;20054;-44
2023/04/08 10:40:51;;;;;;;27.05;13.82;;;8.90;97.60;;;;;;4969847;28;20050;-45
2023/04/08 10:43:17;;;;;;;20.52;13.23;;;9.00;99.40;;;;;;4971669;28;20050;-53
2023/04/08 10:45:44;;;;;;;24.27;14.60;;;9.00;99.40;;;;;;4961621;28;20109;-57
2023/04/08 10:48:16;;;;;;;23.15;13.88;;;9.10;96.70;;;;;;4945857;28;20059;-52
2023/04/08 10:50:53;;;;;;;20.77;13.70;;;9.20;98.10;;;;;;4970891;28;20416;-49
2023/04/08 10:53:27;;;;;;;17.85;12.55;;;9.20;96.80;;;;;;4970719;28;20125;-50
2023/04/08 10:55:53;;;;;;;21.55;14.05;;;9.20;95.30;;;;;;4953612;28;20182;-46
2023/04/08 10:58:19;;;;;;;26.95;15.23;;;9.20;95.00;;;;;;4970341;28;20035;-44
2023/04/08 11:00:44;;;;;;;33.22;17.23;;;9.10;96.10;;;;;;4971573;28;20050;-51
2023/04/08 11:03:10;;;;;;;19.60;14.82;;;9.10;97.60;;;;;;4969967;28;20039;-49
2023/04/08 11:05:37;;;;;;;21.50;15.52;;;8.90;95.70;;;;;;4971233;28;20129;-61
2023/04/08 11:08:04;;;;;;;25.65;15.80;;;8.90;97.80;;;;;;4935878;28;20205;-52
2023/04/08 11:10:35;;;;;;;31.85;15.52;;;8.90;99.20;;;;;;4950585;28;20402;-56
2023/04/08 11:13:01;;;;;;;31.13;17.48;;;9.10;99.00;;;;;;4948957;28;20089;-50
2023/04/08 11:15:29;;;;;;;26.83;17.63;;;9.10;97.20;;;;;;4967236;28;20049;-50
2023/04/08 11:17:55;;;;;;;26.00;16.60;;;9.00;98.40;;;;;;4967997;28;20035;-49
2023/04/08 11:20:21;;;;;;;22.23;16.88;;;9.10;98.40;;;;;;4966009;28;20042;-47
2023/04/08 11:22:49;;;;;;;22.73;17.15;;;9.10;98.40;;;;;;4951406;28;20042;-51
2023/04/08 11:25:14;;;;;;;28.55;16.85;;;9.10;96.70;;;;;;4969809;28;20171;-54
2023/04/08 11:27:40;;;;;;;26.00;17.10;;;9.30;98.10;;;;;;4968735;28;20090;-44
2023/04/08 11:30:07;;;;;;;22.65;16.60;;;9.40;95.40;;;;;;4950223;28;20043;-48
2023/04/08 11:32:35;;;;;;;25.23;15.63;;;9.50;95.20;;;;;;4969282;28;20615;-44
2023/04/08 11:35:03;;;;;;;20.95;15.02;;;9.60;94.70;;;;;;4970826;28;20042;-54
2023/04/08 11:37:41;;;;;;;19.70;15.13;;;9.70;93.80;;;;;;4968983;28;20042;-59
2023/04/08 11:40:11;;;;;;;22.67;16.33;;;9.90;93.50;;;;;;4969857;28;20120;-46
2023/04/08 11:42:38;;;;;;;25.17;17.88;;;9.80;86.40;;;;;;4970462;28;20051;-47
2023/04/08 11:45:15;;;;;;;27.05;17.35;;;9.60;87.20;;;;;;4969464;28;20035;-52
2023/04/08 11:47:41;;;;;;;23.83;16.65;;;9.60;89.70;;;;;;4969297;28;20063;-52
2023/04/08 11:50:08;;;;;;;20.02;16.20;;;9.60;89.40;;;;;;4968323;28;20070;-57
2023/04/08 11:52:43;;;;;;;21.65;14.60;;;9.60;90.10;;;;;;4965827;28;20129;-53
2023/04/08 11:55:21;;;;;;;16.23;13.45;;;9.80;88.70;;;;;;4968160;28;20051;-46
2023/04/08 11:57:47;;;;;;;22.33;14.73;;;9.90;84.00;;;;;;4969659;28;20051;-55
2023/04/08 12:00:13;;;;;;;18.73;13.75;;;9.90;82.80;;;;;;4969431;28;20409;-47
2023/04/08 12:02:39;;;;;;;16.65;14.65;;;9.90;81.00;;;;;;4968313;28;20405;-50
2023/04/08 12:05:05;;;;;;;22.88;13.82;;;10.20;88.50;;;;;;4969759;28;20050;-50
2023/04/08 12:07:31;;;;;;;18.83;13.85;;;10.40;85.60;;;;;;4966645;28;20104;-53
2023/04/08 12:09:57;;;;;;;24.05;13.05;;;10.60;81.90;;;;;;4951580;28;20121;-52
2023/04/08 12:12:23;;;;;;;17.48;13.00;;;10.80;83.30;;;;;;4968504;28;20174;-47
2023/04/08 12:14:48;;;;;;;17.75;13.60;;;11.00;77.00;;;;;;4969726;28;20047;-54
2023/04/08 12:17:14;;;;;;;32.80;14.18;;;11.10;72.10;;;;;;4966015;28;20054;-50
2023/04/08 12:19:40;;;;;;;17.35;14.07;;;11.30;75.40;;;;;;4967076;28;20560;-44
2023/04/08 12:22:06;;;;;;;19.25;14.52;;;11.40;70.30;;;;;;4973418;28;20129;-55
2023/04/08 12:24:32;;;;;;;22.50;15.20;;;11.50;75.40;;;;;;4974932;28;20039;-57
2023/04/08 12:26:58;;;;;;;26.70;17.10;;;11.70;72.00;;;;;;4968205;28;20073;-47
2023/04/08 12:29:23;;;;;;;28.63;17.17;;;11.70;64.50;;;;;;4969308;28;20567;-56
2023/04/08 12:31:50;;;;;;;29.88;17.85;;;11.70;65.70;;;;;;4968835;28;20482;-50
2023/04/08 12:34:16;;;;;;;25.50;18.58;;;11.60;62.80;;;;;;4966026;28;20050;-45
2023/04/08 12:36:43;;;;;;;25.70;19.58;;;11.60;62.00;;;;;;4968329;28;20085;-52
2023/04/08 12:39:09;;;;;;;27.23;19.30;;;11.50;62.10;;;;;;4968570;28;20054;-50
2023/04/08 12:41:35;;;;;;;25.60;19.48;;;11.40;64.30;;;;;;4965886;28;20043;-51